Time;durP1;ratioP1;P1;durP2;ratioP2;P2;SDS_P1;SDS_P2;PMS_P1;PMS_P2;Temp;Humidity;BMP_temperature;BMP_pressure;BME280_temperature;BME280_humidity;BME280_pressure;Samples;Min_cycle;Max_cycle;Signal;HPM_P1;HPM_P2
2022/03/31 00:00:36;;;;;;;23.43;9.50;;;;;;;13.69;61.46;98369.13;5049997;28;20181;-88
2022/03/31 00:03:04;;;;;;;21.87;9.10;;;;;;;11.59;60.36;97978.16;5038648;28;20212;-86
2022/03/31 00:05:30;;;;;;;23.10;8.60;;;;;;;12.74;59.77;98162.69;5032750;28;20296;-88
2022/03/31 00:07:58;;;;;;;21.43;9.10;;;;;;;13.14;60.58;98241.22;5037426;28;20652;-87
2022/03/31 00:10:27;;;;;;;19.40;8.67;;;;;;;13.88;60.16;98359.25;5036769;28;20188;-86
2022/03/31 00:12:54;;;;;;;23.30;9.43;;;;;;;13.44;60.42;98309.41;5034559;28;20534;-87
2022/03/31 00:15:20;;;;;;;26.23;9.43;;;;;;;11.06;59.68;97880.97;5032440;28;20597;-87
2022/03/31 00:17:46;;;;;;;25.30;9.33;;;;;;;11.68;59.61;97993.47;5033908;28;20217;-87
2022/03/31 00:20:12;;;;;;;19.30;8.90;;;;;;;13.51;60.06;98273.94;5043825;28;20204;-86
2022/03/31 00:22:39;;;;;;;18.63;8.60;;;;;;;13.90;60.24;98338.91;5038075;28;20181;-86
2022/03/31 00:25:07;;;;;;;21.23;9.97;;;;;;;13.85;59.74;98315.09;5055339;28;20211;-85
2022/03/31 00:27:34;;;;;;;24.27;9.33;;;;;;;14.00;59.91;98350.91;5055098;28;20167;-86
2022/03/31 00:29:59;;;;;;;16.00;9.50;;;;;;;14.00;60.21;98345.84;5054135;28;20161;-87
2022/03/31 00:32:25;;;;;;;19.57;9.40;;;;;;;11.39;60.40;97926.28;5055285;28;20544;-87
2022/03/31 00:34:50;;;;;;;22.67;10.33;;;;;;;13.81;61.42;98348.97;5052425;28;20161;-87
2022/03/31 00:37:15;;;;;;;18.27;9.13;;;;;;;13.01;61.42;98224.03;5051343;28;20168;-87
2022/03/31 00:39:42;;;;;;;22.30;9.60;;;;;;;11.82;61.61;98040.25;5032588;28;20224;-88
2022/03/31 00:42:09;;;;;;;22.83;9.77;;;;;;;12.95;62.07;98267.13;5032761;28;20166;-87
2022/03/31 00:44:34;;;;;;;18.40;9.50;;;;;;;13.04;62.53;98287.63;5015770;28;20206;-88
2022/03/31 00:47:00;;;;;;;24.57;10.50;;;;;;;12.77;62.52;98223.66;5015440;28;20181;-87
2022/03/31 00:49:26;;;;;;;20.00;9.83;;;;;;;11.96;62.66;98107.25;5032580;28;20630;-88
2022/03/31 00:51:53;;;;;;;20.10;10.67;;;;;;;12.29;62.05;98123.03;5034712;28;20189;-88
2022/03/31 00:54:22;;;;;;;23.30;9.77;;;;;;;13.67;62.54;98351.31;5051841;28;20740;-88
2022/03/31 00:56:49;;;;;;;20.10;10.07;;;;;;;13.72;61.94;98351.38;5034731;28;20658;-86
2022/03/31 00:59:16;;;;;;;24.73;10.03;;;;;;;11.97;62.43;98073.47;5026366;28;20215;-88
2022/03/31 01:01:42;;;;;;;21.90;9.13;;;;;;;12.74;62.45;98218.53;5051916;28;20188;-88
2022/03/31 01:04:08;;;;;;;22.97;9.80;;;;;;;13.58;62.72;98372.38;5051522;28;20235;-88
2022/03/31 01:06:34;;;;;;;27.87;12.47;;;;;;;12.04;62.65;98104.84;5051612;28;20197;-86
2022/03/31 01:09:01;;;;;;;22.33;9.83;;;;;;;11.31;63.18;98012.28;5036803;28;20190;-89
2022/03/31 01:11:29;;;;;;;20.67;9.37;;;;;;;12.72;63.65;98227.78;5035314;28;20158;-88
2022/03/31 01:13:55;;;;;;;20.87;9.47;;;;;;;13.23;64.11;98348.09;5041952;28;20169;-86
2022/03/31 01:16:20;;;;;;;18.93;9.73;;;;;;;11.54;65.10;98055.75;5027407;28;20162;-87
2022/03/31 01:18:45;;;;;;;20.47;9.57;;;;;;;11.40;65.73;98057.19;5034861;28;20602;-88
2022/03/31 01:21:11;;;;;;;21.57;9.33;;;;;;;10.35;66.34;97932.75;5032649;28;20170;-87
2022/03/31 01:23:37;;;;;;;20.43;9.60;;;;;;;12.87;66.59;98370.28;5031878;28;20173;-88
2022/03/31 01:26:06;;;;;;;19.77;9.40;;;;;;;12.97;66.37;98362.00;5017651;28;20197;-88
2022/03/31 01:28:34;;;;;;;22.37;10.07;;;;;;;10.78;66.62;98003.66;5034433;28;20256;-88
2022/03/31 01:30:59;;;;;;;21.60;9.97;;;;;;;12.98;66.68;98366.25;5052588;28;20166;-87
2022/03/31 01:33:25;;;;;;;20.33;10.10;;;;;;;11.75;66.46;98163.53;5051840;28;20597;-87
2022/03/31 01:35:50;;;;;;;28.40;11.80;;;;;;;11.40;66.68;98121.38;5051475;28;20172;-87
2022/03/31 01:38:18;;;;;;;26.77;12.57;;;;;;;11.72;66.85;98145.72;5055342;28;20684;-87
2022/03/31 01:40:43;;;;;;;26.80;11.30;;;;;;;12.44;66.98;98295.88;5055525;28;20157;-87
2022/03/31 01:43:09;;;;;;;22.10;10.60;;;;;;;11.38;67.38;98128.09;5055872;28;20238;-87
2022/03/31 01:45:34;;;;;;;21.70;10.60;;;;;;;12.29;67.33;98265.16;5037684;28;20261;-86
2022/03/31 01:48:00;;;;;;;27.63;11.37;;;;;;;10.40;67.07;97948.88;5055674;28;20314;-87
2022/03/31 01:50:25;;;;;;;25.07;11.20;;;;;;;11.42;67.41;98101.16;5055487;28;20177;-86
2022/03/31 01:52:51;;;;;;;28.63;11.37;;;;;;;10.37;68.05;97956.38;5055776;28;20173;-87
2022/03/31 01:55:16;;;;;;;26.67;12.43;;;;;;;11.38;67.83;98104.44;5057247;28;20168;-87
2022/03/31 01:57:42;;;;;;;29.07;11.83;;;;;;;12.22;68.10;98260.75;5040897;28;20184;-85
2022/03/31 02:00:08;;;;;;;20.80;10.60;;;;;;;10.22;67.41;97903.81;5057031;28;20154;-86
2022/03/31 02:02:34;;;;;;;23.47;10.17;;;;;;;11.32;67.94;98092.50;5038376;28;20625;-87
2022/03/31 02:04:59;;;;;;;22.03;10.47;;;;;;;10.84;68.15;97998.72;5064496;28;20193;-87
2022/03/31 02:07:25;;;;;;;19.43;9.23;;;;;;;11.25;68.03;98094.06;5076129;28;20178;-88
2022/03/31 02:09:50;;;;;;;22.17;10.63;;;;;;;12.87;68.25;98329.66;5051657;28;20674;-88
2022/03/31 02:12:16;;;;;;;21.07;10.70;;;;;;;11.11;69.16;98044.81;5020678;28;20189;-87
2022/03/31 02:14:41;;;;;;;22.83;10.60;;;;;;;12.24;70.56;98266.75;5035431;28;20590;-87
2022/03/31 02:17:11;;;;;;;23.27;12.20;;;;;;;11.21;70.71;98101.56;5033873;28;20237;-87
2022/03/31 02:19:37;;;;;;;21.07;10.53;;;;;;;12.09;71.02;98280.78;5035250;28;20607;-87
2022/03/31 02:22:03;;;;;;;24.97;10.50;;;;;;;12.31;71.91;98319.31;5017883;28;20170;-87
2022/03/31 02:24:29;;;;;;;26.07;10.33;;;;;;;12.20;72.00;98309.78;5035136;28;20198;-87
2022/03/31 02:26:55;;;;;;;26.50;10.90;;;;;;;9.79;72.46;97907.06;5016967;28;20174;-85
2022/03/31 02:29:21;;;;;;;25.90;11.27;;;;;;;10.06;72.48;97980.97;5034795;28;20170;-88
2022/03/31 02:31:49;;;;;;;23.93;10.43;;;;;;;11.37;73.29;98201.56;5016661;28;20178;-89
2022/03/31 02:34:16;;;;;;;23.87;11.03;;;;;;;12.29;72.27;98313.34;5034890;28;20607;-86
2022/03/31 02:36:42;;;;;;;22.70;11.17;;;;;;;11.30;72.92;98169.31;5034624;28;20633;-87
2022/03/31 02:39:08;;;;;;;23.80;10.60;;;;;;;9.71;72.51;97903.50;5032813;28;20196;-87
2022/03/31 02:41:35;;;;;;;22.67;10.57;;;;;;;12.20;73.02;98335.13;5016466;28;20174;-86
2022/03/31 02:44:00;;;;;;;26.03;10.83;;;;;;;9.41;72.19;97849.75;5036940;28;20169;-87
2022/03/31 02:46:27;;;;;;;22.03;10.87;;;;;;;11.08;72.33;98124.94;5037769;28;20158;-85
2022/03/31 02:48:55;;;;;;;23.37;11.90;;;;;;;12.37;72.43;98316.03;5016392;28;20308;-87
2022/03/31 02:51:22;;;;;;;30.93;11.73;;;;;;;10.08;71.05;97935.47;5034917;28;20173;-87
2022/03/31 02:56:32;;;;;;;23.67;10.87;;;;;;;12.20;72.07;98325.84;5037517;28;20195;-86
2022/03/31 02:58:57;;;;;;;26.70;11.37;;;;;;;10.14;70.94;97965.13;5053719;28;20613;-87
2022/03/31 03:01:23;;;;;;;21.60;11.03;;;;;;;12.47;71.10;98345.00;5035922;28;20254;-87
2022/03/31 03:03:51;;;;;;;22.90;10.67;;;;;;;11.27;72.04;98145.63;5044278;28;20174;-86
2022/03/31 03:06:19;;;;;;;25.37;10.87;;;;;;;12.34;71.77;98314.28;5034467;28;20189;-87
2022/03/31 03:08:45;;;;;;;24.40;11.20;;;;;;;11.31;72.79;98158.34;5033409;28;20180;-86
2022/03/31 03:11:11;;;;;;;27.10;11.43;;;;;;;9.76;72.25;97916.22;5032992;28;20177;-87
2022/03/31 03:13:36;;;;;;;24.03;11.30;;;;;;;9.66;72.56;97894.97;5015705;28;20170;-87
2022/03/31 03:16:08;;;;;;;26.70;11.30;;;;;;;12.30;72.40;98321.84;5032153;28;20170;-87
2022/03/31 03:18:35;;;;;;;23.50;11.20;;;;;;;10.16;72.88;97987.13;5033178;28;20781;-86
2022/03/31 03:21:01;;;;;;;25.47;12.07;;;;;;;10.85;72.77;98095.75;5015823;28;20197;-87
2022/03/31 03:23:27;;;;;;;23.47;11.87;;;;;;;9.56;73.33;97898.06;5038788;28;20234;-89
2022/03/31 03:25:52;;;;;;;26.37;12.30;;;;;;;9.70;73.51;97922.00;5053871;28;20620;-87
2022/03/31 03:28:18;;;;;;;29.07;12.10;;;;;;;12.14;73.40;98300.34;5053872;28;20161;-86
2022/03/31 03:30:43;;;;;;;24.50;11.23;;;;;;;9.97;73.56;97954.66;5055796;28;20165;-88
2022/03/31 03:33:08;;;;;;;25.37;11.83;;;;;;;9.99;74.00;97978.28;5066623;28;20539;-84
2022/03/31 03:35:34;;;;;;;25.87;11.23;;;;;;;10.54;73.69;98066.41;5037479;28;20170;-88
2022/03/31 03:37:59;;;;;;;26.63;11.43;;;;;;;12.03;73.94;98306.06;5053250;28;20165;-88
2022/03/31 03:40:25;;;;;;;24.33;11.27;;;;;;;10.40;73.98;98028.16;5053295;28;20158;-87
2022/03/31 03:42:52;;;;;;;23.70;11.20;;;;;;;9.96;73.98;97955.47;5053138;28;20215;-88
2022/03/31 03:45:18;;;;;;;25.90;11.30;;;;;;;9.78;74.11;97933.13;5052992;28;20292;-88
2022/03/31 03:47:43;;;;;;;25.00;11.67;;;;;;;10.58;74.69;98088.41;5053614;28;20185;-88
2022/03/31 03:50:09;;;;;;;23.93;11.33;;;;;;;11.48;74.37;98240.66;5052903;28;20177;-88
2022/03/31 03:52:35;;;;;;;26.40;11.50;;;;;;;11.66;73.66;98248.63;5051474;28;20196;-86
2022/03/31 03:55:00;;;;;;;32.57;12.00;;;;;;;9.60;72.35;97863.66;5053142;28;20543;-88
2022/03/31 03:57:26;;;;;;;28.03;11.47;;;;;;;9.81;72.18;97897.81;5035087;28;20551;-87
2022/03/31 03:59:51;;;;;;;28.73;11.70;;;;;;;9.80;72.26;97886.03;5052689;28;20171;-86
2022/03/31 04:02:17;;;;;;;26.97;12.77;;;;;;;10.88;71.84;98058.69;5053122;28;20962;-90
2022/03/31 04:04:42;;;;;;;28.10;13.60;;;;;;;11.36;72.04;98151.69;5053113;28;20196;-88
2022/03/31 04:07:08;;;;;;;27.97;13.10;;;;;;;11.69;72.29;98203.09;5032825;28;20697;-87
2022/03/31 04:09:33;;;;;;;30.73;12.97;;;;;;;10.88;71.37;98056.16;5032732;28;20173;-87
2022/03/31 04:11:58;;;;;;;30.33;12.43;;;;;;;11.17;71.57;98070.28;5032486;28;20193;-88
2022/03/31 04:14:24;;;;;;;33.50;12.93;;;;;;;11.51;72.41;98180.72;5033469;28;20531;-88
2022/03/31 04:16:50;;;;;;;33.33;12.40;;;;;;;12.50;72.40;98299.38;5033300;28;20622;-87
2022/03/31 04:19:15;;;;;;;32.93;12.67;;;;;;;10.83;72.25;98034.09;5036612;28;20170;-88
2022/03/31 04:21:41;;;;;;;77.20;31.50;;;;;;;11.79;72.39;98199.91;5036193;28;20181;-86
2022/03/31 04:24:07;;;;;;;45.77;17.93;;;;;;;10.32;71.78;97935.22;5035903;28;20165;-88
2022/03/31 04:26:33;;;;;;;32.17;14.50;;;;;;;10.47;72.39;97978.50;5019614;28;20182;-88
2022/03/31 04:29:01;;;;;;;32.67;14.67;;;;;;;9.67;72.52;97865.50;5054021;28;20206;-87
2022/03/31 04:31:27;;;;;;;34.40;13.87;;;;;;;11.22;72.62;98099.09;5033326;28;20178;-88
2022/03/31 04:33:52;;;;;;;30.43;13.77;;;;;;;10.72;72.23;98016.16;5033333;28;20170;-88
2022/03/31 04:36:18;;;;;;;30.97;13.50;;;;;;;12.48;72.52;98303.53;5031990;28;20622;-86
2022/03/31 04:38:45;;;;;;;34.97;17.63;;;;;;;10.43;71.61;97982.69;5031528;28;20170;-87
2022/03/31 04:41:10;;;;;;;32.80;15.67;;;;;;;10.57;71.65;97968.66;5031558;28;20220;-86
2022/03/31 04:43:36;;;;;;;29.60;14.50;;;;;;;12.19;71.91;98250.59;5013629;28;20177;-85
2022/03/31 04:46:01;;;;;;;32.53;15.63;;;;;;;11.98;72.00;98178.28;5026211;28;20203;-86
2022/03/31 04:48:27;;;;;;;37.40;15.70;;;;;;;12.16;71.88;98207.41;5050220;28;20188;-86
2022/03/31 04:50:53;;;;;;;35.47;14.20;;;;;;;11.92;72.19;98212.00;5051215;28;20165;-87
2022/03/31 04:53:18;;;;;;;34.70;15.17;;;;;;;9.94;72.02;97883.81;5057819;28;20827;-88
2022/03/31 04:55:44;;;;;;;35.53;16.60;;;;;;;11.27;72.25;98117.75;5070566;28;20184;-87
2022/03/31 04:58:09;;;;;;;33.13;15.73;;;;;;;12.75;71.74;98332.81;5064862;28;20181;-88
2022/03/31 05:00:35;;;;;;;33.90;17.17;;;;;;;12.00;71.35;98205.41;5051721;28;20177;-88
2022/03/31 05:03:01;;;;;;;31.67;14.33;;;;;;;11.74;70.41;98140.66;5054299;28;20626;-87
2022/03/31 05:05:27;;;;;;;31.63;14.20;;;;;;;12.62;69.76;98304.66;5056788;28;20185;-88
2022/03/31 05:07:52;;;;;;;33.20;14.07;;;;;;;11.41;68.98;98071.56;5066866;28;20252;-86
2022/03/31 05:10:19;;;;;;;37.47;13.90;;;;;;;12.62;69.75;98275.03;5046241;28;20200;-88
2022/03/31 05:12:44;;;;;;;31.93;14.43;;;;;;;10.28;69.64;97877.78;5055373;28;20189;-87
2022/03/31 05:15:11;;;;;;;33.50;14.27;;;;;;;13.21;69.19;98338.72;5054147;28;20180;-87
2022/03/31 05:17:37;;;;;;;35.53;15.77;;;;;;;13.13;69.07;98341.13;5055043;28;20205;-88
2022/03/31 05:20:10;;;;;;;44.73;19.07;;;;;;;12.78;69.35;98281.22;5037090;28;20185;-88
2022/03/31 05:22:38;;;;;;;47.97;21.33;;;;;;;12.08;69.66;98178.50;5055352;28;20172;-89
2022/03/31 05:25:04;;;;;;;46.10;24.40;;;;;;;13.08;70.41;98339.34;5049871;28;20201;-88
2022/03/31 05:27:30;;;;;;;51.47;23.70;;;;;;;12.37;70.72;98248.38;5051329;28;20158;-85
2022/03/31 05:29:57;;;;;;;71.23;23.53;;;;;;;12.92;71.34;98335.66;5033340;28;20571;-87
2022/03/31 05:32:23;;;;;;;56.77;24.73;;;;;;;11.61;72.23;98120.94;5050387;28;20730;-87
2022/03/31 05:34:48;;;;;;;62.20;27.97;;;;;;;11.10;72.68;98043.09;5053604;28;20217;-88
2022/03/31 05:37:14;;;;;;;91.87;44.17;;;;;;;11.24;73.05;98077.16;5053730;28;20208;-87
2022/03/31 05:39:40;;;;;;;110.50;52.13;;;;;;;9.48;73.88;97798.53;5036445;28;20269;-90
2022/03/31 05:42:05;;;;;;;123.20;52.27;;;;;;;10.55;73.41;97980.38;5054585;28;20272;-89
2022/03/31 05:44:31;;;;;;;110.70;53.00;;;;;;;11.68;75.64;98164.19;5054263;28;21016;-88
2022/03/31 05:46:57;;;;;;;114.17;53.73;;;;;;;11.34;75.92;98128.03;5045190;28;20301;-88
2022/03/31 05:49:22;;;;;;;120.07;55.93;;;;;;;12.56;77.12;98335.00;5022352;28;20272;-89
2022/03/31 05:51:48;;;;;;;110.80;55.03;;;;;;;12.82;76.59;98359.19;5034862;28;20302;-89
2022/03/31 05:54:14;;;;;;;99.07;47.93;;;;;;;10.85;76.70;98030.78;5044583;28;20178;-90
2022/03/31 05:56:39;;;;;;;105.37;51.03;;;;;;;10.39;74.87;97949.69;5034529;28;20185;-89
2022/03/31 05:59:05;;;;;;;85.37;42.10;;;;;;;12.30;76.12;98271.09;5020781;28;20280;-89
2022/03/31 06:01:30;;;;;;;59.30;28.00;;;;;;;11.23;76.03;98107.53;5039926;28;20177;-88
2022/03/31 06:03:56;;;;;;;56.77;27.87;;;;;;;12.05;76.09;98249.47;5035124;28;20273;-87
2022/03/31 06:06:23;;;;;;;31.53;15.33;;;;;;;10.96;75.98;98059.69;5016137;28;20213;-86
2022/03/31 06:08:49;;;;;;;30.53;13.73;;;;;;;11.57;76.75;98206.19;5034338;28;20217;-87
2022/03/31 06:11:14;;;;;;;34.03;14.43;;;;;;;11.73;77.79;98245.41;5016808;28;20672;-90
2022/03/31 06:13:39;;;;;;;27.33;13.23;;;;;;;12.40;76.72;98370.25;5034388;28;20192;-87
2022/03/31 06:16:05;;;;;;;33.10;13.57;;;;;;;11.59;76.43;98229.06;5017065;28;20225;-88
2022/03/31 06:18:30;;;;;;;35.67;13.57;;;;;;;11.68;75.31;98240.22;5016711;28;20225;-88
2022/03/31 06:20:56;;;;;;;31.87;13.13;;;;;;;11.35;74.95;98185.44;5016881;28;20197;-89
2022/03/31 06:23:23;;;;;;;27.13;13.13;;;;;;;11.87;75.37;98282.06;5033508;28;20213;-88
2022/03/31 06:25:48;;;;;;;23.83;12.30;;;;;;;12.38;75.87;98388.81;5033616;28;20248;-88
2022/03/31 06:28:14;;;;;;;28.50;12.97;;;;;;;12.49;75.65;98391.56;5035704;28;20182;-88
2022/03/31 06:30:40;;;;;;;28.60;13.10;;;;;;;12.64;75.65;98410.47;5016444;28;20618;-88
2022/03/31 06:33:05;;;;;;;29.90;14.03;;;;;;;12.09;74.62;98261.38;5033927;28;20244;-88
2022/03/31 06:35:31;;;;;;;33.00;14.53;;;;;;;11.47;75.48;98157.84;5034407;28;20615;-88
2022/03/31 06:37:56;;;;;;;31.87;14.70;;;;;;;12.11;76.38;98254.66;5033749;28;20184;-89
2022/03/31 06:40:22;;;;;;;37.17;14.57;;;;;;;10.64;76.01;97972.13;5033858;28;20189;-87
2022/03/31 06:42:47;;;;;;;31.97;14.37;;;;;;;11.94;75.01;98169.78;5066977;28;20641;-87
2022/03/31 06:45:16;;;;;;;33.53;15.73;;;;;;;12.99;74.59;98292.59;5081493;28;20205;-88
2022/03/31 06:47:44;;;;;;;38.90;17.57;;;;;;;12.45;74.73;98210.44;5056299;28;20285;-86
2022/03/31 06:50:11;;;;;;;36.93;16.53;;;;;;;11.86;73.17;98102.00;5067636;28;21048;-87
2022/03/31 06:52:37;;;;;;;41.70;18.27;;;;;;;12.87;72.67;98277.19;5050224;28;20265;-88
2022/03/31 06:55:03;;;;;;;44.60;19.57;;;;;;;12.51;71.83;98180.06;5029317;28;20225;-88
2022/03/31 06:57:28;;;;;;;39.00;15.60;;;;;;;13.48;70.09;98332.41;5049599;28;20197;-87
2022/03/31 06:59:54;;;;;;;40.30;15.30;;;;;;;12.91;68.71;98182.41;5045505;28;20189;-86
2022/03/31 07:02:19;;;;;;;34.03;14.83;;;;;;;13.95;67.60;98350.00;5057176;28;20193;-88
2022/03/31 07:04:45;;;;;;;34.30;15.20;;;;;;;13.16;66.51;98183.63;5056482;28;20181;-89
2022/03/31 07:07:10;;;;;;;31.93;15.57;;;;;;;13.49;66.30;98208.66;5055090;28;20239;-86
2022/03/31 07:09:36;;;;;;;33.23;15.67;;;;;;;13.79;64.41;98198.84;5054600;28;20230;-86
2022/03/31 07:12:01;;;;;;;39.33;15.33;;;;;;;15.05;62.45;98347.91;5029846;28;20184;-87
2022/03/31 07:14:28;;;;;;;32.33;13.60;;;;;;;15.13;62.01;98354.78;5064687;28;20193;-90
2022/03/31 07:16:53;;;;;;;34.00;13.27;;;;;;;15.11;62.06;98368.31;5036539;28;20188;-89
2022/03/31 07:19:19;;;;;;;32.97;13.30;;;;;;;15.27;61.50;98372.75;5059282;28;20177;-88
2022/03/31 07:21:44;;;;;;;28.53;12.27;;;;;;;15.32;61.40;98378.72;5052093;28;21075;-90
2022/03/31 07:24:10;;;;;;;29.17;13.83;;;;;;;14.15;59.88;98172.94;5048251;28;20188;-87
2022/03/31 07:26:35;;;;;;;29.10;12.37;;;;;;;13.88;60.41;98119.25;5039092;28;20177;-87
2022/03/31 07:29:01;;;;;;;29.37;12.67;;;;;;;15.09;59.67;98261.25;5037956;28;20244;-88
2022/03/31 07:31:28;;;;;;;41.70;18.27;;;;;;;13.54;60.13;98034.97;5043777;28;20327;-87
2022/03/31 07:33:54;;;;;;;35.70;14.60;;;;;;;14.01;60.35;98093.94;5058548;28;20177;-85
2022/03/31 07:36:20;;;;;;;33.87;14.17;;;;;;;14.80;58.67;98195.63;5076752;28;20173;-86
2022/03/31 07:38:45;;;;;;;33.60;14.67;;;;;;;15.75;58.50;98306.78;5059644;28;20181;-88
2022/03/31 07:41:12;;;;;;;32.67;14.53;;;;;;;14.20;58.34;98011.81;5033686;28;20180;-87
2022/03/31 07:43:38;;;;;;;34.30;15.37;;;;;;;16.46;57.91;98383.72;5047598;28;20200;-88
2022/03/31 07:46:05;;;;;;;40.07;15.20;;;;;;;16.55;57.31;98369.31;5046245;28;20232;-88
2022/03/31 07:48:31;;;;;;;30.47;15.40;;;;;;;16.60;56.15;98293.50;5045653;28;20229;-90
2022/03/31 07:50:58;;;;;;;33.43;15.23;;;;;;;16.13;57.36;98243.13;5047109;28;20488;-89
2022/03/31 07:53:25;;;;;;;34.83;14.43;;;;;;;14.08;59.20;97967.63;5052515;28;20720;-88
2022/03/31 07:55:51;;;;;;;34.50;15.13;;;;;;;15.61;57.23;98101.75;5042278;28;20638;-89
2022/03/31 07:58:16;;;;;;;33.43;14.07;;;;;;;16.90;56.29;98275.66;5022875;28;20281;-89
2022/03/31 08:00:42;;;;;;;32.90;13.70;;;;;;;15.80;56.24;98075.44;5037482;28;20678;-92
2022/03/31 08:03:08;;;;;;;30.03;13.93;;;;;;;17.27;55.83;98305.50;5018844;28;20166;-88
2022/03/31 08:05:37;;;;;;;31.13;13.40;;;;;;;16.00;55.56;98080.56;5018165;28;20196;-89
2022/03/31 08:08:03;;;;;;;34.30;13.93;;;;;;;17.49;55.81;98314.88;5041003;28;20887;-88
2022/03/31 08:10:28;;;;;;;30.97;14.47;;;;;;;15.45;56.58;98009.84;5054380;28;20265;-88
2022/03/31 08:12:54;;;;;;;38.30;16.40;;;;;;;17.66;56.34;98317.44;5046042;28;20264;-88
2022/03/31 08:15:20;;;;;;;31.87;13.17;;;;;;;18.27;53.87;98329.19;5037156;28;20184;-89
2022/03/31 08:17:46;;;;;;;31.97;13.47;;;;;;;18.28;53.71;98320.66;5054162;28;20724;-88
2022/03/31 08:20:13;;;;;;;35.00;14.13;;;;;;;17.71;55.53;98331.09;5057122;28;20182;-89
2022/03/31 08:22:39;;;;;;;30.33;13.70;;;;;;;16.92;56.22;98240.75;5061023;28;20185;-87
2022/03/31 08:25:06;;;;;;;32.37;13.77;;;;;;;17.21;56.38;98300.38;5052568;28;20193;-87
2022/03/31 08:27:32;;;;;;;35.23;14.13;;;;;;;17.08;56.90;98291.03;5067734;28;20193;-89
2022/03/31 08:29:59;;;;;;;33.17;14.53;;;;;;;16.82;56.77;98227.09;5036779;28;20701;-89
2022/03/31 08:32:25;;;;;;;35.80;15.43;;;;;;;17.30;57.74;98332.78;5041570;28;20189;-88
2022/03/31 08:34:50;;;;;;;29.80;14.53;;;;;;;16.70;55.67;98111.25;5036363;28;20172;-89
2022/03/31 08:37:16;;;;;;;31.63;14.50;;;;;;;17.19;55.25;98206.63;5051337;28;20189;-89
2022/03/31 08:39:41;;;;;;;34.43;15.53;;;;;;;16.71;56.73;98190.47;5019676;28;20190;-90
2022/03/31 08:42:07;;;;;;;37.30;15.67;;;;;;;15.99;57.75;98081.41;5028473;28;20608;-90
2022/03/31 08:44:35;;;;;;;31.27;14.97;;;;;;;15.34;60.64;98071.91;5031992;28;20340;-89
2022/03/31 08:47:01;;;;;;;30.83;14.67;;;;;;;15.80;60.64;98082.22;5029172;28;20189;-90
2022/03/31 08:49:29;;;;;;;35.57;15.93;;;;;;;15.80;59.41;97993.78;5051714;28;20197;-88
2022/03/31 08:51:55;;;;;;;37.17;15.90;;;;;;;16.88;57.93;98129.97;5035818;28;20184;-89
2022/03/31 08:54:20;;;;;;;34.10;16.10;;;;;;;17.01;58.32;98205.78;5038447;28;20219;-89
2022/03/31 08:56:46;;;;;;;34.57;15.37;;;;;;;16.08;59.68;98057.59;5034798;28;20176;-88
2022/03/31 08:59:12;;;;;;;40.23;17.07;;;;;;;17.55;59.03;98232.16;5052177;28;20177;-89
2022/03/31 09:01:39;;;;;;;42.03;16.83;;;;;;;18.16;58.02;98305.31;5034709;28;20168;-88
2022/03/31 09:04:05;;;;;;;38.20;16.93;;;;;;;16.91;58.43;98109.50;5052215;28;20240;-90
2022/03/31 09:06:30;;;;;;;37.67;16.03;;;;;;;17.26;56.69;98093.19;5034296;28;20287;-89
2022/03/31 09:09:04;;;;;;;43.87;16.83;;;;;;;15.89;59.33;97942.75;5034226;28;20201;-89
2022/03/31 09:11:35;;;;;;;36.83;16.80;;;;;;;18.32;58.27;98260.00;5034459;28;20177;-89
2022/03/31 09:14:02;;;;;;;33.23;16.47;;;;;;;16.23;58.68;97963.13;5067659;28;20172;-89
2022/03/31 09:16:34;;;;;;;36.73;17.20;;;;;;;17.51;61.25;98266.25;5075055;28;20183;-88
2022/03/31 09:19:11;;;;;;;32.90;16.87;;;;;;;17.90;59.30;98245.69;5045216;28;20278;-89
2022/03/31 09:21:53;;;;;;;39.53;17.00;;;;;;;18.55;57.68;98283.81;5036236;28;20212;-89
2022/03/31 09:24:24;;;;;;;37.03;16.50;;;;;;;17.98;58.90;98292.59;5036596;28;20192;-88
2022/03/31 09:26:51;;;;;;;36.97;17.07;;;;;;;18.21;58.72;98308.72;5053387;28;20157;-88
2022/03/31 09:29:20;;;;;;;35.80;16.23;;;;;;;18.38;57.48;98270.19;5015842;28;20174;-89
2022/03/31 09:31:49;;;;;;;34.00;15.50;;;;;;;18.51;54.92;98191.56;5032008;28;20186;-91
2022/03/31 09:34:15;;;;;;;31.13;14.87;;;;;;;18.26;55.80;98221.59;5014551;28;20174;-89
2022/03/31 09:36:59;;;;;;;37.03;15.07;;;;;;;18.61;56.15;98280.34;5016252;28;20575;-89
2022/03/31 09:39:24;;;;;;;38.03;15.20;;;;;;;17.25;55.93;98013.03;5032552;28;20162;-90
2022/03/31 09:41:56;;;;;;;35.37;14.50;;;;;;;18.00;56.34;98134.66;5037677;28;20545;-90
2022/03/31 09:44:23;;;;;;;30.83;15.73;;;;;;;17.92;56.74;98126.19;5032688;28;20201;-88
2022/03/31 09:46:49;;;;;;;36.87;15.43;;;;;;;18.66;57.75;98266.66;5038233;28;20186;-88
2022/03/31 09:49:17;;;;;;;36.60;16.73;;;;;;;17.18;59.72;98077.03;5040048;28;20225;-89
2022/03/31 09:51:46;;;;;;;35.07;14.90;;;;;;;18.57;57.64;98186.41;5062840;28;20181;-88
2022/03/31 09:54:12;;;;;;;34.60;15.97;;;;;;;18.65;56.84;98207.72;5036955;28;20193;-88
2022/03/31 09:56:41;;;;;;;32.63;15.23;;;;;;;19.41;55.91;98241.25;5031002;28;20236;-89
2022/03/31 09:59:17;;;;;;;28.37;13.47;;;;;;;19.92;53.80;98232.97;5034330;28;20192;-90
2022/03/31 10:01:44;;;;;;;35.90;14.40;;;;;;;20.07;53.45;98221.66;5055941;28;20200;-89
2022/03/31 10:04:12;;;;;;;31.57;14.47;;;;;;;19.62;52.42;98074.13;5055851;28;20280;-87
2022/03/31 10:06:42;;;;;;;32.30;13.77;;;;;;;19.67;51.71;98066.34;5066286;28;20176;-89
2022/03/31 10:09:11;;;;;;;39.53;14.00;;;;;;;19.57;50.75;98010.88;5057666;28;20213;-91
2022/03/31 10:11:45;;;;;;;30.63;14.40;;;;;;;19.68;50.12;97952.53;5038233;28;20216;-88
2022/03/31 10:14:22;;;;;;;38.03;15.73;;;;;;;19.03;50.68;97903.00;5037286;28;20642;-89
2022/03/31 10:16:58;;;;;;;33.60;14.10;;;;;;;20.85;50.86;98177.69;5047598;28;20189;-89
2022/03/31 10:19:28;;;;;;;42.07;13.70;;;;;;;21.39;48.42;98212.75;5050753;28;20185;-88
2022/03/31 10:25:08;;;;;;;26.90;11.33;;;;;;;21.21;47.81;98202.78;4979698;28;20644;-91
2022/03/31 10:27:36;;;;;;;29.10;11.47;;;;;;;21.10;47.15;98130.06;4989367;28;20274;-83
2022/03/31 10:30:28;;;;;;;32.57;11.67;;;;;;;19.73;47.73;97966.13;4976762;28;20760;-83
2022/03/31 10:33:01;;;;;;;29.73;11.57;;;;;;;20.90;48.54;98184.44;4975957;28;20191;-83
2022/03/31 10:35:28;;;;;;;26.07;11.40;;;;;;;21.12;48.09;98195.25;4993664;28;20217;-81
2022/03/31 10:37:53;;;;;;;32.83;11.97;;;;;;;21.14;48.06;98196.06;4992828;28;20172;-81
2022/03/31 10:40:38;;;;;;;30.60;12.13;;;;;;;20.42;46.83;98006.09;4991613;28;20167;-82
2022/03/31 10:43:11;;;;;;;38.23;12.23;;;;;;;21.26;46.92;98149.47;4989281;28;20729;-82
2022/03/31 10:45:39;;;;;;;30.87;11.30;;;;;;;21.41;46.13;98166.38;4992335;28;20210;-82
2022/03/31 10:48:24;;;;;;;28.13;10.83;;;;;;;21.18;45.71;98120.47;4983488;28;20262;-82
2022/03/31 10:51:06;;;;;;;31.70;11.00;;;;;;;20.94;46.16;98111.47;4993237;28;20174;-82
2022/03/31 10:53:34;;;;;;;33.13;11.70;;;;;;;21.36;46.19;98174.19;5003168;28;20182;-81
2022/03/31 10:56:02;;;;;;;34.90;11.63;;;;;;;21.49;45.78;98172.22;5005706;28;20188;-83
2022/03/31 10:58:29;;;;;;;31.50;10.50;;;;;;;21.35;45.20;98162.19;4996347;28;20183;-84
2022/03/31 11:01:02;;;;;;;29.20;11.03;;;;;;;21.33;45.39;98153.66;5023890;28;20246;-82
2022/03/31 11:03:28;;;;;;;28.63;9.63;;;;;;;19.56;44.67;97893.69;5057340;28;20157;-82
2022/03/31 11:05:56;;;;;;;28.93;9.90;;;;;;;21.21;44.56;98166.75;5073894;28;20185;-82
2022/03/31 11:08:22;;;;;;;31.87;11.23;;;;;;;20.26;45.58;98092.06;5075017;28;20172;-82
2022/03/31 11:10:49;;;;;;;27.00;10.60;;;;;;;20.93;45.43;98166.34;5077003;28;20157;-83
2022/03/31 11:13:17;;;;;;;29.90;9.10;;;;;;;19.44;45.30;97915.25;5077519;28;20169;-82
2022/03/31 11:15:46;;;;;;;35.43;10.40;;;;;;;19.66;45.31;97992.78;5073825;28;20226;-84
2022/03/31 11:18:11;;;;;;;24.47;9.00;;;;;;;21.07;45.22;98148.13;5055441;28;20220;-82
2022/03/31 11:20:37;;;;;;;34.63;9.73;;;;;;;20.32;44.60;97990.88;5072755;28;20179;-82
2022/03/31 11:23:06;;;;;;;32.80;9.80;;;;;;;21.46;44.51;98139.66;5072923;28;20214;-82